Time;durP1;ratioP1;P1;durP2;ratioP2;P2;SDS_P1;SDS_P2;PMS_P1;PMS_P2;Temp;Humidity;BMP_temperature;BMP_pressure;BME280_temperature;BME280_humidity;BME280_pressure;Samples;Min_cycle;Max_cycle;Signal;HPM_P1;HPM_P2
2021/08/22 00:01:38;;;;;;;11.52;6.65;;;16.40;98.00;;;;;;5073046;28;20146;-73
2021/08/22 00:04:04;;;;;;;11.27;5.75;;;16.40;98.00;;;;;;5074008;28;20021;-73
2021/08/22 00:06:34;;;;;;;12.18;5.65;;;16.40;97.90;;;;;;5079121;28;20322;-73
2021/08/22 00:09:00;;;;;;;10.27;6.22;;;16.40;98.00;;;;;;5074590;28;20021;-73
2021/08/22 00:11:26;;;;;;;10.35;5.72;;;16.30;98.00;;;;;;5063000;28;20035;-73
2021/08/22 00:13:52;;;;;;;9.25;6.03;;;16.40;98.00;;;;;;5076695;28;20029;-73
2021/08/22 00:16:17;;;;;;;13.55;6.90;;;16.40;97.90;;;;;;5068135;28;20021;-72
2021/08/22 00:18:43;;;;;;;9.23;5.78;;;16.50;98.00;;;;;;5070954;28;20060;-76
2021/08/22 00:21:08;;;;;;;11.55;6.72;;;16.40;97.90;;;;;;5073395;28;20028;-73
2021/08/22 00:23:34;;;;;;;9.13;5.55;;;16.40;98.00;;;;;;5064120;28;20028;-73
2021/08/22 00:26:00;;;;;;;10.30;6.18;;;16.40;98.00;;;;;;5072858;28;20409;-72
2021/08/22 00:28:26;;;;;;;13.30;6.13;;;16.50;98.00;;;;;;5074971;28;20052;-73
2021/08/22 00:30:51;;;;;;;9.98;6.07;;;16.50;98.00;;;;;;5070251;28;20115;-73
2021/08/22 00:33:17;;;;;;;11.82;5.70;;;16.40;98.00;;;;;;5074933;28;20077;-73
2021/08/22 00:35:42;;;;;;;9.73;5.55;;;16.40;98.00;;;;;;5064218;28;20040;-73
2021/08/22 00:38:11;;;;;;;9.43;5.80;;;16.40;98.00;;;;;;5077378;28;20056;-73
2021/08/22 00:40:36;;;;;;;10.57;5.70;;;16.50;98.00;;;;;;5068490;28;20060;-73
2021/08/22 00:43:07;;;;;;;12.57;6.00;;;16.50;97.90;;;;;;5075356;28;20075;-73
2021/08/22 00:45:32;;;;;;;10.52;6.80;;;16.50;98.00;;;;;;5073950;28;20022;-73
2021/08/22 00:47:58;;;;;;;10.10;6.90;;;16.60;98.00;;;;;;5075561;28;20079;-73
2021/08/22 00:50:24;;;;;;;12.75;7.28;;;16.50;98.00;;;;;;5069577;28;20033;-73
2021/08/22 00:52:53;;;;;;;10.70;6.78;;;16.40;98.00;;;;;;5074315;28;20474;-75
2021/08/22 00:55:19;;;;;;;17.48;7.93;;;16.40;98.00;;;;;;5074518;28;20033;-73
2021/08/22 00:57:45;;;;;;;14.52;8.48;;;16.30;98.00;;;;;;5066948;28;20029;-72
2021/08/22 01:00:14;;;;;;;14.13;8.55;;;16.20;98.00;;;;;;5064461;28;20052;-73
2021/08/22 01:02:48;;;;;;;13.90;8.32;;;16.20;97.80;;;;;;5071431;28;20070;-72
2021/08/22 01:05:39;;;;;;;13.77;8.77;;;16.20;97.50;;;;;;5075147;28;20028;-72
2021/08/22 01:08:40;;;;;;;15.70;8.05;;;16.20;97.40;;;;;;5076155;28;20041;-74
2021/08/22 01:11:15;;;;;;;12.63;8.02;;;16.20;97.30;;;;;;5049994;28;20032;-72
2021/08/22 01:13:50;;;;;;;12.80;8.73;;;16.20;97.20;;;;;;5075695;28;20032;-73
2021/08/22 01:16:17;;;;;;;11.77;7.70;;;16.20;96.70;;;;;;5071848;28;20090;-72
2021/08/22 01:18:45;;;;;;;13.45;8.95;;;16.10;96.80;;;;;;5073389;28;20024;-77
2021/08/22 01:21:23;;;;;;;16.08;7.97;;;16.10;96.70;;;;;;5072736;28;20024;-74
2021/08/22 01:24:01;;;;;;;13.95;8.13;;;16.10;96.40;;;;;;5073426;28;20115;-73
2021/08/22 01:26:30;;;;;;;12.25;7.93;;;16.10;96.10;;;;;;5066942;28;20032;-73
2021/08/22 01:28:58;;;;;;;15.65;8.15;;;16.10;96.20;;;;;;5069951;28;20028;-73
2021/08/22 01:31:47;;;;;;;11.20;7.45;;;16.10;96.00;;;;;;5063588;28;20430;-74
2021/08/22 01:34:14;;;;;;;11.13;6.25;;;16.10;96.00;;;;;;5064425;28;20402;-74
2021/08/22 01:36:42;;;;;;;11.65;7.50;;;16.10;96.10;;;;;;5071623;28;20071;-74
2021/08/22 01:39:09;;;;;;;15.07;8.35;;;16.10;95.90;;;;;;5061383;28;20016;-74
2021/08/22 01:41:36;;;;;;;11.65;7.53;;;16.10;95.70;;;;;;5074335;28;20047;-74
2021/08/22 01:44:03;;;;;;;13.23;8.25;;;16.00;95.60;;;;;;5072386;28;20024;-74
2021/08/22 01:46:36;;;;;;;9.02;5.95;;;16.00;95.60;;;;;;5065104;28;20055;-74
2021/08/22 01:49:12;;;;;;;7.75;5.43;;;16.00;95.60;;;;;;5068070;28;20305;-74
2021/08/22 01:51:41;;;;;;;8.95;4.78;;;16.00;95.70;;;;;;5072177;28;20029;-74
2021/08/22 01:54:11;;;;;;;9.45;5.57;;;16.00;95.70;;;;;;5061514;28;20405;-74
2021/08/22 01:56:39;;;;;;;9.07;5.30;;;16.00;95.70;;;;;;5068143;28;20090;-74
2021/08/22 01:59:05;;;;;;;8.63;5.55;;;16.00;95.50;;;;;;5072894;28;20232;-74
2021/08/22 02:01:33;;;;;;;10.32;5.63;;;16.00;95.60;;;;;;5057199;28;20032;-74
2021/08/22 02:04:25;;;;;;;9.02;6.18;;;16.00;95.40;;;;;;5064445;28;20036;-74
2021/08/22 02:07:13;;;;;;;12.73;7.07;;;16.00;95.30;;;;;;5055931;28;20441;-74
2021/08/22 02:10:04;;;;;;;10.18;6.18;;;15.90;95.10;;;;;;5067831;28;20039;-74
2021/08/22 02:12:30;;;;;;;10.85;6.85;;;15.90;95.00;;;;;;5059889;28;20417;-74
2021/08/22 02:15:19;;;;;;;9.82;5.97;;;15.90;94.70;;;;;;5071729;28;20033;-74
2021/08/22 02:17:49;;;;;;;11.52;5.63;;;15.90;94.50;;;;;;5059959;28;20021;-74
2021/08/22 02:20:17;;;;;;;8.60;5.55;;;16.00;94.50;;;;;;5069476;28;20052;-74
2021/08/22 02:22:46;;;;;;;9.65;6.10;;;16.00;94.50;;;;;;5084654;28;20375;-74
2021/08/22 02:25:13;;;;;;;10.82;5.55;;;16.00;94.80;;;;;;5075076;28;20025;-74
2021/08/22 02:27:39;;;;;;;9.88;5.63;;;16.00;94.80;;;;;;5057340;28;20137;-75
2021/08/22 02:30:05;;;;;;;9.57;5.30;;;16.00;94.70;;;;;;5070317;28;20021;-74
2021/08/22 02:32:31;;;;;;;7.47;4.63;;;16.00;94.70;;;;;;5068335;28;20309;-75
2021/08/22 02:34:56;;;;;;;7.55;4.90;;;16.00;95.40;;;;;;5072969;28;20032;-74
2021/08/22 02:37:22;;;;;;;9.13;5.00;;;16.00;95.70;;;;;;5066224;28;20024;-74
2021/08/22 02:39:48;;;;;;;6.38;4.22;;;16.00;96.60;;;;;;5068919;28;20071;-74
2021/08/22 02:42:16;;;;;;;8.02;5.13;;;16.00;96.90;;;;;;5060230;28;20041;-74
2021/08/22 02:44:43;;;;;;;7.68;5.03;;;16.00;96.80;;;;;;5077339;28;20439;-74
2021/08/22 02:47:09;;;;;;;7.53;4.80;;;16.00;97.00;;;;;;5072133;28;20060;-74
2021/08/22 02:49:35;;;;;;;9.77;5.22;;;16.00;97.40;;;;;;5066350;28;20021;-74
2021/08/22 02:52:00;;;;;;;11.07;6.20;;;16.00;97.10;;;;;;5076434;28;20033;-74
2021/08/22 02:54:26;;;;;;;10.30;5.28;;;16.00;98.00;;;;;;5069360;28;20064;-74
2021/08/22 02:56:51;;;;;;;11.88;6.40;;;16.00;97.90;;;;;;5074461;28;20121;-74
2021/08/22 02:59:17;;;;;;;14.05;5.90;;;16.00;97.50;;;;;;5074302;28;20036;-74
2021/08/22 03:01:43;;;;;;;11.20;6.60;;;16.00;97.30;;;;;;5070834;28;20298;-74
2021/08/22 03:04:08;;;;;;;9.77;5.82;;;15.90;97.00;;;;;;5071309;28;20413;-74
2021/08/22 03:06:34;;;;;;;10.13;6.35;;;15.90;96.90;;;;;;5065676;28;20045;-74
2021/08/22 03:09:02;;;;;;;9.32;6.03;;;15.90;96.60;;;;;;5074389;28;20029;-74
2021/08/22 03:11:29;;;;;;;7.90;5.20;;;15.90;96.50;;;;;;5057732;28;20036;-74
2021/08/22 03:13:54;;;;;;;9.65;5.75;;;15.90;96.20;;;;;;5072353;28;20027;-73
2021/08/22 03:16:20;;;;;;;8.40;5.30;;;15.80;96.20;;;;;;5069097;28;20029;-74
2021/08/22 03:18:46;;;;;;;9.38;5.15;;;15.80;96.00;;;;;;5071786;28;20055;-74
2021/08/22 03:21:11;;;;;;;8.15;5.57;;;15.70;95.90;;;;;;5064845;28;20078;-74
2021/08/22 03:23:40;;;;;;;9.20;6.10;;;15.70;95.90;;;;;;5084150;28;20047;-74
2021/08/22 03:26:06;;;;;;;10.35;5.88;;;15.70;96.00;;;;;;5067994;28;20032;-74
2021/08/22 03:28:31;;;;;;;8.90;5.60;;;15.60;95.90;;;;;;5073496;28;20028;-75
2021/08/22 03:30:57;;;;;;;9.10;5.68;;;15.60;95.80;;;;;;5075127;28;20109;-74
2021/08/22 03:33:23;;;;;;;8.25;5.70;;;15.50;95.50;;;;;;5087406;28;20095;-74
2021/08/22 03:35:51;;;;;;;10.75;6.07;;;15.50;95.40;;;;;;5069060;28;20033;-75
2021/08/22 03:38:17;;;;;;;11.35;5.55;;;15.50;95.20;;;;;;5075746;28;20129;-74
2021/08/22 03:40:43;;;;;;;11.57;5.65;;;15.50;94.90;;;;;;5063084;28;20394;-74
2021/08/22 03:43:08;;;;;;;10.30;6.10;;;15.50;94.90;;;;;;5070171;28;20115;-74
2021/08/22 03:45:34;;;;;;;8.65;5.50;;;15.40;94.90;;;;;;5074302;28;20421;-74
2021/08/22 03:48:00;;;;;;;10.48;5.57;;;15.40;94.90;;;;;;5077253;28;20027;-74
2021/08/22 03:50:26;;;;;;;8.77;5.00;;;15.40;94.90;;;;;;5074427;28;20056;-74
2021/08/22 03:52:52;;;;;;;8.70;5.45;;;15.30;94.60;;;;;;5076143;28;20352;-74
2021/08/22 03:55:20;;;;;;;9.88;5.55;;;15.40;94.60;;;;;;5077978;28;20077;-74
2021/08/22 03:57:46;;;;;;;9.30;5.82;;;15.30;94.80;;;;;;5074420;28;20036;-75
2021/08/22 04:00:13;;;;;;;11.48;5.47;;;15.30;94.60;;;;;;5073778;28;20017;-74
2021/08/22 04:02:39;;;;;;;8.52;5.03;;;15.30;94.50;;;;;;5066369;28;20448;-73
2021/08/22 04:05:08;;;;;;;8.70;4.97;;;15.30;94.40;;;;;;5077546;28;20032;-74
2021/08/22 04:07:34;;;;;;;8.85;5.35;;;15.30;94.40;;;;;;5073007;28;20109;-74
2021/08/22 04:10:00;;;;;;;11.00;5.63;;;15.30;94.00;;;;;;5060552;28;20029;-74
2021/08/22 04:12:27;;;;;;;8.77;5.63;;;15.30;94.50;;;;;;5060143;28;20032;-75
2021/08/22 04:14:53;;;;;;;8.02;5.28;;;15.30;94.40;;;;;;5070202;28;20027;-74
2021/08/22 04:17:19;;;;;;;8.98;5.07;;;15.30;94.40;;;;;;5078771;28;20111;-75
2021/08/22 04:19:44;;;;;;;8.27;5.47;;;15.30;94.30;;;;;;5079259;28;20409;-74
2021/08/22 04:22:11;;;;;;;7.13;4.47;;;15.30;94.30;;;;;;5067858;28;20028;-75
2021/08/22 04:24:37;;;;;;;8.35;5.38;;;15.30;94.10;;;;;;5078130;28;20484;-74
2021/08/22 04:27:06;;;;;;;10.80;5.50;;;15.30;94.60;;;;;;5077587;28;20041;-74
2021/08/22 04:29:36;;;;;;;11.02;5.68;;;15.30;94.40;;;;;;5085730;28;20024;-74
2021/08/22 04:32:02;;;;;;;9.80;5.80;;;15.30;94.50;;;;;;5059360;28;20115;-74
2021/08/22 04:34:28;;;;;;;10.57;6.00;;;15.30;94.50;;;;;;5070755;28;20104;-75
2021/08/22 04:36:53;;;;;;;10.38;5.80;;;15.30;94.40;;;;;;5084066;28;20040;-74
2021/08/22 04:39:19;;;;;;;12.43;5.60;;;15.30;94.30;;;;;;5069812;28;20111;-74
2021/08/22 04:41:45;;;;;;;8.80;5.82;;;15.30;94.20;;;;;;5070201;28;20039;-74
2021/08/22 04:44:12;;;;;;;11.65;5.90;;;15.30;94.50;;;;;;5076911;28;20029;-74
2021/08/22 04:46:38;;;;;;;9.43;5.70;;;15.30;94.50;;;;;;5077353;28;20029;-74
2021/08/22 04:49:04;;;;;;;8.90;5.45;;;15.40;94.00;;;;;;5077827;28;20316;-74
2021/08/22 04:51:29;;;;;;;9.70;5.82;;;15.40;94.50;;;;;;5075396;28;20024;-75
2021/08/22 04:53:56;;;;;;;11.10;5.38;;;15.40;94.50;;;;;;5077757;28;20402;-74
2021/08/22 04:56:23;;;;;;;9.10;5.70;;;15.40;94.70;;;;;;5066936;28;20044;-74
2021/08/22 04:58:48;;;;;;;8.75;5.30;;;15.40;94.60;;;;;;5073393;28;20036;-74
2021/08/22 05:01:14;;;;;;;6.97;4.55;;;15.40;95.20;;;;;;5080397;28;20325;-74
2021/08/22 05:03:40;;;;;;;7.30;4.28;;;15.50;96.10;;;;;;5071306;28;20029;-74
2021/08/22 05:06:05;;;;;;;7.85;4.70;;;15.60;96.60;;;;;;5076985;28;20024;-74
2021/08/22 05:08:31;;;;;;;8.45;4.90;;;15.60;97.50;;;;;;5075587;28;20036;-74
2021/08/22 05:10:57;;;;;;;7.07;4.30;;;15.70;98.00;;;;;;5063539;28;20044;-74
2021/08/22 05:13:23;;;;;;;8.75;4.75;;;15.80;98.00;;;;;;5066200;28;20021;-74
2021/08/22 05:15:51;;;;;;;8.77;5.13;;;15.90;98.00;;;;;;5073300;28;20427;-74
2021/08/22 05:18:18;;;;;;;7.22;4.20;;;15.90;98.00;;;;;;5071985;28;20046;-74
2021/08/22 05:20:43;;;;;;;6.93;4.13;;;16.00;98.00;;;;;;5079835;28;20039;-73
2021/08/22 05:23:09;;;;;;;8.32;4.07;;;16.00;98.00;;;;;;5076733;28;20103;-73
2021/08/22 05:25:35;;;;;;;7.68;4.47;;;16.10;98.00;;;;;;5074950;28;20043;-74
2021/08/22 05:28:00;;;;;;;8.55;4.38;;;16.10;98.00;;;;;;5076054;28;20024;-74
2021/08/22 05:30:26;;;;;;;9.15;4.60;;;16.20;98.00;;;;;;5071900;28;20119;-74
2021/08/22 05:32:52;;;;;;;7.07;4.50;;;16.30;98.00;;;;;;5061906;28;20476;-73
2021/08/22 05:35:18;;;;;;;6.65;4.38;;;16.30;98.00;;;;;;5068778;28;20046;-74
2021/08/22 05:37:43;;;;;;;9.48;4.57;;;16.40;98.00;;;;;;5070278;28;20021;-74
2021/08/22 05:40:09;;;;;;;7.82;4.55;;;16.40;98.00;;;;;;5076436;28;20028;-74
2021/08/22 05:42:35;;;;;;;7.25;4.22;;;16.50;98.00;;;;;;5075516;28;20475;-73
2021/08/22 05:45:01;;;;;;;8.20;4.35;;;16.50;98.00;;;;;;5088045;28;20024;-73
2021/08/22 05:47:26;;;;;;;10.32;4.53;;;16.60;98.00;;;;;;5072654;28;20028;-73
2021/08/22 05:49:52;;;;;;;10.23;4.65;;;16.80;98.00;;;;;;5074983;28;20016;-73
2021/08/22 05:52:18;;;;;;;7.45;4.63;;;16.80;98.00;;;;;;5071508;28;20082;-74
2021/08/22 05:54:44;;;;;;;8.90;4.25;;;16.90;98.00;;;;;;5074918;28;20028;-73
2021/08/22 05:57:10;;;;;;;9.48;4.18;;;17.00;98.00;;;;;;5070852;28;20032;-73
2021/08/22 05:59:35;;;;;;;6.93;4.30;;;17.00;98.00;;;;;;5076770;28;20058;-73
2021/08/22 06:02:01;;;;;;;6.55;3.90;;;17.10;98.00;;;;;;5069004;28;20033;-73
2021/08/22 06:04:27;;;;;;;7.55;4.07;;;17.20;98.00;;;;;;5075909;28;20028;-74
2021/08/22 06:06:52;;;;;;;6.30;3.72;;;17.30;98.00;;;;;;5075661;28;20047;-73
2021/08/22 06:09:18;;;;;;;7.35;3.75;;;17.40;98.00;;;;;;5073866;28;20046;-73
2021/08/22 06:11:44;;;;;;;6.45;3.55;;;17.70;98.00;;;;;;5071445;28;20107;-73
2021/08/22 06:14:09;;;;;;;8.00;4.13;;;17.90;98.00;;;;;;5073956;28;20027;-73
2021/08/22 06:16:35;;;;;;;6.18;3.60;;;18.20;98.00;;;;;;5073302;28;20537;-73
2021/08/22 06:19:01;;;;;;;9.50;3.83;;;18.30;97.80;;;;;;5071311;28;20040;-73
2021/08/22 06:21:26;;;;;;;6.65;3.85;;;18.30;96.10;;;;;;5070042;28;20417;-73
2021/08/22 06:23:57;;;;;;;8.32;3.88;;;18.40;95.80;;;;;;5074424;28;20033;-73
2021/08/22 06:26:25;;;;;;;6.38;4.05;;;18.50;96.70;;;;;;5073261;28;20094;-74
2021/08/22 06:28:51;;;;;;;8.88;4.18;;;18.70;95.00;;;;;;5072758;28;20073;-73
2021/08/22 06:31:17;;;;;;;8.43;3.90;;;18.80;95.70;;;;;;5073270;28;20097;-73
2021/08/22 06:33:43;;;;;;;8.35;3.85;;;18.90;96.00;;;;;;5069157;28;20028;-74
2021/08/22 06:36:08;;;;;;;7.25;4.22;;;18.80;95.50;;;;;;5061804;28;20025;-73
2021/08/22 06:38:34;;;;;;;10.15;4.13;;;18.90;95.00;;;;;;5066237;28;20024;-73
2021/08/22 06:41:00;;;;;;;6.97;4.20;;;18.90;95.50;;;;;;5072246;28;20024;-74
2021/08/22 06:43:26;;;;;;;7.97;4.35;;;18.80;95.20;;;;;;5072774;28;20039;-73
2021/08/22 06:45:52;;;;;;;8.00;4.07;;;18.80;95.10;;;;;;5073885;28;20032;-73
2021/08/22 06:48:17;;;;;;;7.63;4.10;;;18.90;96.00;;;;;;5069143;28;20039;-74
2021/08/22 06:50:43;;;;;;;6.07;3.67;;;19.00;95.40;;;;;;5074783;28;20312;-74
2021/08/22 06:53:09;;;;;;;7.15;3.90;;;19.10;95.30;;;;;;5075109;28;20290;-73
2021/08/22 06:55:35;;;;;;;8.15;4.47;;;19.10;94.70;;;;;;5072507;28;20029;-73
2021/08/22 06:58:01;;;;;;;7.95;4.20;;;19.10;93.80;;;;;;5075474;28;20054;-73
2021/08/22 07:00:27;;;;;;;6.53;3.85;;;19.20;95.50;;;;;;5072630;28;20055;-73
2021/08/22 07:02:55;;;;;;;6.97;3.90;;;19.30;94.80;;;;;;5066301;28;20032;-73
2021/08/22 07:05:21;;;;;;;10.43;4.03;;;19.40;93.50;;;;;;5074342;28;20059;-73
2021/08/22 07:07:49;;;;;;;7.30;3.67;;;19.50;92.70;;;;;;5074962;28;20043;-74
2021/08/22 07:10:15;;;;;;;7.03;3.45;;;19.60;91.60;;;;;;5072274;28;20103;-74
2021/08/22 07:12:41;;;;;;;7.63;4.00;;;19.70;92.80;;;;;;5072788;28;20508;-74
2021/08/22 07:15:07;;;;;;;7.05;3.80;;;19.80;92.90;;;;;;5073541;28;20056;-74
2021/08/22 07:17:32;;;;;;;9.25;4.03;;;19.90;93.50;;;;;;5072562;28;20310;-73
2021/08/22 07:19:58;;;;;;;6.55;3.67;;;19.90;92.40;;;;;;5073230;28;20028;-74
2021/08/22 07:22:24;;;;;;;5.93;3.60;;;19.90;93.20;;;;;;5069944;28;20028;-73
2021/08/22 07:24:49;;;;;;;8.30;3.20;;;20.20;93.40;;;;;;5075372;28;20037;-74
2021/08/22 07:27:18;;;;;;;6.57;3.80;;;20.50;93.70;;;;;;5063583;28;20056;-73
2021/08/22 07:29:44;;;;;;;7.00;4.07;;;20.70;92.60;;;;;;5073423;28;20025;-73
2021/08/22 07:32:10;;;;;;;7.60;3.58;;;20.90;92.40;;;;;;5074282;28;20112;-74
2021/08/22 07:34:36;;;;;;;6.43;3.53;;;21.10;91.60;;;;;;5074057;28;20020;-74
2021/08/22 07:37:01;;;;;;;6.07;3.70;;;21.30;89.00;;;;;;5074275;28;20086;-73
2021/08/22 07:39:27;;;;;;;8.55;3.97;;;21.40;89.10;;;;;;5074651;28;20420;-73
2021/08/22 07:41:53;;;;;;;6.32;3.50;;;21.30;89.60;;;;;;5068149;28;20271;-73
2021/08/22 07:44:20;;;;;;;7.22;3.83;;;21.40;88.20;;;;;;5074571;28;20059;-73
2021/08/22 07:46:46;;;;;;;6.15;3.75;;;21.50;86.30;;;;;;5071760;28;20049;-73
2021/08/22 07:49:12;;;;;;;8.82;3.42;;;21.40;86.80;;;;;;5073029;28;20409;-73
2021/08/22 07:51:41;;;;;;;6.30;3.60;;;21.50;86.20;;;;;;5073983;28;20028;-73
2021/08/22 07:54:06;;;;;;;7.20;3.70;;;21.80;85.20;;;;;;5073776;28;20029;-73
2021/08/22 07:56:32;;;;;;;5.95;3.45;;;21.80;86.20;;;;;;5073120;28;20055;-76
2021/08/22 07:58:58;;;;;;;7.65;3.58;;;21.80;86.40;;;;;;5073866;28;20056;-73
2021/08/22 08:01:23;;;;;;;6.13;3.70;;;21.90;85.20;;;;;;5073347;28;20119;-73
2021/08/22 08:03:49;;;;;;;7.13;3.42;;;22.40;85.70;;;;;;5067866;28;20368;-74
2021/08/22 08:06:15;;;;;;;7.85;3.78;;;23.10;82.90;;;;;;5052135;28;20106;-73
2021/08/22 08:08:40;;;;;;;6.00;3.53;;;23.00;83.10;;;;;;5073465;28;20337;-73
2021/08/22 08:11:06;;;;;;;6.20;3.75;;;23.10;83.10;;;;;;5064037;28;20433;-73
2021/08/22 08:13:32;;;;;;;6.93;3.70;;;22.70;84.30;;;;;;5068527;28;20121;-74
2021/08/22 08:15:57;;;;;;;6.60;3.85;;;22.50;84.80;;;;;;5068407;28;20695;-73
2021/08/22 08:18:24;;;;;;;7.38;3.83;;;22.10;86.20;;;;;;5076743;28;20033;-75
2021/08/22 08:20:56;;;;;;;7.38;3.83;;;21.80;86.40;;;;;;5072708;28;20017;-74
2021/08/22 08:23:21;;;;;;;7.38;3.58;;;21.70;87.70;;;;;;5075431;28;20035;-74
2021/08/22 08:25:47;;;;;;;6.03;3.53;;;21.70;87.70;;;;;;5073346;28;20032;-73
2021/08/22 08:28:13;;;;;;;6.60;3.75;;;21.60;87.40;;;;;;5073734;28;20028;-73
2021/08/22 08:30:38;;;;;;;8.70;4.20;;;21.50;88.90;;;;;;5076691;28;20122;-73
2021/08/22 08:33:04;;;;;;;7.43;4.05;;;21.70;88.50;;;;;;5062927;28;20082;-73
2021/08/22 08:35:30;;;;;;;8.18;3.72;;;21.80;88.40;;;;;;5073277;28;20024;-73
2021/08/22 08:37:56;;;;;;;7.15;3.88;;;21.70;88.80;;;;;;5065306;28;20482;-74
2021/08/22 08:40:22;;;;;;;7.75;3.97;;;21.30;88.70;;;;;;5075893;28;20031;-73
2021/08/22 08:42:56;;;;;;;7.35;3.97;;;21.10;90.00;;;;;;5072681;28;20875;-74
2021/08/22 08:45:49;;;;;;;7.72;4.07;;;21.20;90.20;;;;;;5074715;28;20425;-73
2021/08/22 08:48:38;;;;;;;7.25;4.45;;;20.80;90.70;;;;;;5060987;28;20071;-73
2021/08/22 08:51:16;;;;;;;7.85;4.03;;;20.70;91.30;;;;;;5073069;28;20428;-73
2021/08/22 08:53:47;;;;;;;7.80;4.30;;;20.50;91.70;;;;;;5075959;28;20450;-73
2021/08/22 08:56:20;;;;;;;7.30;4.22;;;20.40;91.80;;;;;;5070730;28;20317;-75
2021/08/22 08:58:46;;;;;;;7.70;4.38;;;20.30;92.70;;;;;;5072587;28;20468;-73
2021/08/22 09:01:12;;;;;;;8.48;4.35;;;20.30;92.90;;;;;;5070399;28;20166;-73
2021/08/22 09:04:08;;;;;;;7.50;4.45;;;20.30;93.00;;;;;;5072660;28;20024;-73
2021/08/22 09:07:11;;;;;;;6.28;4.05;;;20.40;92.80;;;;;;5072298;28;20037;-73
2021/08/22 09:09:55;;;;;;;8.88;4.35;;;20.40;93.30;;;;;;5072680;28;20032;-73
2021/08/22 09:12:49;;;;;;;8.50;4.50;;;20.50;91.90;;;;;;5070871;28;20028;-73
2021/08/22 09:15:53;;;;;;;7.35;4.05;;;20.40;91.90;;;;;;5072057;28;20104;-73
2021/08/22 09:18:59;;;;;;;6.10;3.58;;;20.50;92.00;;;;;;5071018;28;20040;-74
2021/08/22 09:21:43;;;;;;;6.70;4.07;;;20.90;91.40;;;;;;5071138;28;20040;-73
2021/08/22 09:24:30;;;;;;;7.90;4.43;;;20.90;90.40;;;;;;5071185;28;20029;-75
2021/08/22 09:27:33;;;;;;;7.35;4.45;;;20.70;91.40;;;;;;5070582;28;20033;-73
2021/08/22 09:30:50;;;;;;;7.43;4.20;;;20.60;92.20;;;;;;5072073;28;20059;-73
2021/08/22 09:33:34;;;;;;;10.73;3.97;;;20.70;91.90;;;;;;5032209;28;20036;-73
2021/08/22 09:36:21;;;;;;;6.97;4.22;;;20.50;92.00;;;;;;5070988;28;20025;-73
2021/08/22 09:39:11;;;;;;;7.63;4.10;;;20.40;91.70;;;;;;5071979;28;20325;-73
2021/08/22 09:42:05;;;;;;;8.93;4.40;;;20.00;92.80;;;;;;5070489;28;20021;-73
2021/08/22 09:44:43;;;;;;;8.90;4.40;;;20.20;92.80;;;;;;5071380;28;20413;-73
2021/08/22 09:47:27;;;;;;;6.93;4.30;;;20.30;92.40;;;;;;5071737;28;20074;-74
2021/08/22 09:50:41;;;;;;;6.33;4.00;;;20.20;92.40;;;;;;5070572;28;20024;-73
2021/08/22 09:53:44;;;;;;;8.23;4.50;;;20.30;92.50;;;;;;5016021;28;20067;-73
2021/08/22 09:56:47;;;;;;;7.10;4.03;;;20.60;92.00;;;;;;5069959;28;20033;-73
2021/08/22 09:59:24;;;;;;;7.25;4.00;;;20.90;91.30;;;;;;5066051;28;20064;-74
2021/08/22 10:02:01;;;;;;;7.90;4.28;;;21.00;91.00;;;;;;5069951;28;20100;-74
2021/08/22 10:04:45;;;;;;;6.75;4.60;;;21.10;90.50;;;;;;5071017;28;20033;-73
2021/08/22 10:07:19;;;;;;;8.07;4.40;;;20.50;93.40;;;;;;5069700;28;20044;-73
2021/08/22 10:09:57;;;;;;;6.85;4.00;;;19.90;94.70;;;;;;5072116;28;20032;-74
2021/08/22 10:12:23;;;;;;;8.00;4.22;;;19.60;95.30;;;;;;5070737;28;20322;-74
2021/08/22 10:14:48;;;;;;;7.03;4.10;;;19.60;96.00;;;;;;5071873;28;20033;-74
2021/08/22 10:17:19;;;;;;;7.40;4.60;;;19.60;95.70;;;;;;5068757;28;20396;-73
2021/08/22 10:19:48;;;;;;;7.22;4.22;;;19.70;95.70;;;;;;5071491;28;20444;-74
2021/08/22 10:22:18;;;;;;;6.75;4.18;;;19.60;94.50;;;;;;5070455;28;20043;-74
2021/08/22 10:24:45;;;;;;;7.90;4.40;;;19.60;94.90;;;;;;5069023;28;20028;-74
2021/08/22 10:27:36;;;;;;;8.52;5.10;;;19.60;94.30;;;;;;5068895;28;20029;-73
2021/08/22 10:30:03;;;;;;;6.88;4.35;;;19.50;94.40;;;;;;5070634;28;20024;-73
2021/08/22 10:32:31;;;;;;;9.35;4.47;;;19.60;95.60;;;;;;5067902;28;20047;-74
2021/08/22 10:35:16;;;;;;;7.70;4.55;;;19.70;94.80;;;;;;5070169;28;20051;-74
2021/08/22 10:37:43;;;;;;;6.65;4.00;;;19.80;94.70;;;;;;5066589;28;20029;-74
2021/08/22 10:40:23;;;;;;;7.18;4.15;;;20.00;94.50;;;;;;5070307;28;20040;-74
2021/08/22 10:43:10;;;;;;;6.25;4.07;;;20.20;93.80;;;;;;5069176;28;20056;-74
2021/08/22 10:45:46;;;;;;;7.35;4.45;;;20.40;93.70;;;;;;5068406;28;20024;-74
2021/08/22 10:48:14;;;;;;;8.07;4.50;;;20.40;94.00;;;;;;5070518;28;20028;-74
2021/08/22 10:51:04;;;;;;;8.25;4.13;;;20.60;93.50;;;;;;5071439;28;20100;-74
2021/08/22 10:53:37;;;;;;;8.25;4.97;;;20.30;93.20;;;;;;5070753;28;20059;-74
2021/08/22 10:56:21;;;;;;;7.60;4.38;;;20.00;94.80;;;;;;5069929;28;20040;-74
2021/08/22 10:58:58;;;;;;;7.35;4.03;;;20.00;95.40;;;;;;5073195;28;20024;-74
2021/08/22 11:01:36;;;;;;;8.23;4.63;;;20.00;94.70;;;;;;5068354;28;20029;-74
2021/08/22 11:04:03;;;;;;;7.78;4.05;;;20.00;95.60;;;;;;5067762;28;20120;-74
2021/08/22 11:06:28;;;;;;;6.82;4.05;;;19.90;94.40;;;;;;5066835;28;20032;-74
2021/08/22 11:08:54;;;;;;;9.32;5.15;;;19.90;95.30;;;;;;5067253;28;20467;-74
2021/08/22 11:11:20;;;;;;;7.55;4.88;;;19.90;95.90;;;;;;5068565;28;20095;-74
2021/08/22 11:13:53;;;;;;;8.15;4.88;;;19.90;95.60;;;;;;5069036;28;20047;-74
2021/08/22 11:16:20;;;;;;;9.98;4.55;;;19.80;96.20;;;;;;5069877;28;20024;-73
2021/08/22 11:18:47;;;;;;;6.82;4.72;;;19.80;96.20;;;;;;5073404;28;20485;-74
2021/08/22 11:21:13;;;;;;;6.82;4.45;;;19.90;96.40;;;;;;5070182;28;20031;-73
2021/08/22 11:23:39;;;;;;;6.78;4.20;;;20.00;95.90;;;;;;5071467;28;20027;-75
2021/08/22 11:26:07;;;;;;;7.18;4.40;;;20.10;94.70;;;;;;5068754;28;20021;-74
2021/08/22 11:28:34;;;;;;;7.70;4.45;;;20.20;94.80;;;;;;5070007;28;20066;-74
2021/08/22 11:30:59;;;;;;;6.97;4.22;;;20.60;95.20;;;;;;5070078;28;20402;-74
2021/08/22 11:33:29;;;;;;;6.35;4.10;;;20.80;92.70;;;;;;5069018;28;20025;-74
2021/08/22 11:35:55;;;;;;;7.82;4.10;;;20.80;93.40;;;;;;5069600;28;20025;-74
2021/08/22 11:38:21;;;;;;;6.45;4.22;;;20.80;93.80;;;;;;5069404;28;20041;-75
2021/08/22 11:40:47;;;;;;;8.07;4.50;;;20.90;93.60;;;;;;5069449;28;20033;-74
2021/08/22 11:43:13;;;;;;;7.25;4.10;;;21.10;92.50;;;;;;5067675;28;20025;-74
2021/08/22 11:45:44;;;;;;;9.70;4.43;;;21.10;92.20;;;;;;5066692;28;20045;-74
2021/08/22 11:48:18;;;;;;;9.55;4.93;;;21.10;92.80;;;;;;5069008;28;20029;-74
2021/08/22 11:50:45;;;;;;;6.57;3.70;;;21.20;91.70;;;;;;5070178;28;20039;-74
2021/08/22 11:53:11;;;;;;;8.27;4.80;;;21.20;92.00;;;;;;5074404;28;20023;-74
2021/08/22 11:55:39;;;;;;;8.10;4.60;;;21.10;92.10;;;;;;5077374;28;20025;-74
2021/08/22 11:58:20;;;;;;;7.93;4.75;;;21.00;91.40;;;;;;5078793;28;20036;-74
2021/08/22 12:00:55;;;;;;;9.48;4.55;;;20.90;92.20;;;;;;5077771;28;20021;-74
2021/08/22 12:03:25;;;;;;;7.68;4.78;;;20.90;92.80;;;;;;5074226;28;20024;-73
2021/08/22 12:06:05;;;;;;;7.63;4.55;;;20.90;92.40;;;;;;5077524;28;20424;-73
2021/08/22 12:08:32;;;;;;;7.47;4.78;;;21.00;91.70;;;;;;5063593;28;20044;-74
2021/08/22 12:11:10;;;;;;;7.88;4.47;;;20.80;91.30;;;;;;5060603;28;20031;-73
2021/08/22 12:13:38;;;;;;;7.22;4.70;;;20.60;92.30;;;;;;5073309;28;20025;-73
2021/08/22 12:16:23;;;;;;;8.25;4.70;;;20.50;92.50;;;;;;5075875;28;20028;-75
2021/08/22 12:18:49;;;;;;;7.57;4.25;;;20.50;92.60;;;;;;5074213;28;20037;-73
2021/08/22 12:21:17;;;;;;;7.60;4.22;;;20.40;93.00;;;;;;5074027;28;20036;-72
2021/08/22 12:23:45;;;;;;;6.93;4.15;;;20.50;92.50;;;;;;5075593;28;20572;-73
2021/08/22 12:26:32;;;;;;;7.25;4.32;;;20.30;92.90;;;;;;5071797;28;20124;-73
2021/08/22 12:29:06;;;;;;;7.57;4.70;;;20.30;93.30;;;;;;5071063;28;20031;-73
2021/08/22 12:31:42;;;;;;;;;;;20.30;93.60;;;;;;5074523;28;20033;-73
2021/08/22 12:34:12;;;;;;;9.90;4.30;;;20.40;93.50;;;;;;5076361;28;19924;-74
2021/08/22 12:36:46;;;;;;;7.97;4.53;;;20.50;92.70;;;;;;5074637;28;20025;-73
2021/08/22 12:39:15;;;;;;;7.88;4.30;;;20.50;92.60;;;;;;5073317;28;20108;-73
2021/08/22 12:41:48;;;;;;;8.88;4.90;;;20.40;92.90;;;;;;5071742;28;20060;-73
2021/08/22 12:44:20;;;;;;;7.67;4.60;;;20.40;93.40;;;;;;5073687;28;20021;-74
2021/08/22 12:47:00;;;;;;;8.48;4.68;;;20.30;93.20;;;;;;5075212;28;20337;-73
2021/08/22 12:49:26;;;;;;;8.30;4.38;;;20.30;93.60;;;;;;5058213;28;20029;-74
2021/08/22 12:51:54;;;;;;;7.32;4.38;;;20.40;94.00;;;;;;5079818;28;20047;-73
2021/08/22 12:54:22;;;;;;;6.72;4.00;;;20.50;93.20;;;;;;5077544;28;20059;-74
2021/08/22 12:56:49;;;;;;;6.97;4.15;;;21.00;92.40;;;;;;5075839;28;20090;-74
2021/08/22 12:59:15;;;;;;;6.80;4.10;;;21.30;91.00;;;;;;5075881;28;20448;-74
2021/08/22 13:01:40;;;;;;;6.43;4.10;;;21.80;89.40;;;;;;5072150;28;20024;-74